sensor_id;sensor_type;location;lat;lon;timestamp;pressure;altitude;pressure_sealevel;temperature;humidity
10706;BME280;5404;42.656;23.336;2023-07-31T00:00:00;94534.25;;;21.45;100.00
10706;BME280;5404;42.656;23.336;2023-07-31T00:02:25;94526.16;;;21.49;100.00
10706;BME280;5404;42.656;23.336;2023-07-31T00:04:51;94529.66;;;21.49;100.00
10706;BME280;5404;42.656;23.336;2023-07-31T00:07:16;94532.75;;;21.48;100.00
10706;BME280;5404;42.656;23.336;2023-07-31T00:09:42;94529.16;;;21.40;100.00
10706;BME280;5404;42.656;23.336;2023-07-31T00:12:07;94527.16;;;21.34;100.00
10706;BME280;5404;42.656;23.336;2023-07-31T00:14:33;94530.19;;;21.29;100.00
10706;BME280;5404;42.656;23.336;2023-07-31T00:16:58;94540.59;;;21.27;100.00
10706;BME280;5404;42.656;23.336;2023-07-31T00:19:24;94549.53;;;21.27;100.00
10706;BME280;5404;42.656;23.336;2023-07-31T00:21:49;94537.53;;;21.28;100.00
10706;BME280;5404;42.656;23.336;2023-07-31T00:24:15;94531.78;;;21.33;100.00
10706;BME280;5404;42.656;23.336;2023-07-31T00:26:40;94531.81;;;21.37;100.00
10706;BME280;5404;42.656;23.336;2023-07-31T00:29:06;94531.75;;;21.30;100.00
10706;BME280;5404;42.656;23.336;2023-07-31T00:31:31;94520.56;;;21.05;100.00
10706;BME280;5404;42.656;23.336;2023-07-31T00:33:57;94528.84;;;20.90;100.00
10706;BME280;5404;42.656;23.336;2023-07-31T00:36:22;94496.09;;;20.46;100.00
10706;BME280;5404;42.656;23.336;2023-07-31T00:38:48;94523.53;;;20.44;100.00
10706;BME280;5404;42.656;23.336;2023-07-31T00:41:14;94529.56;;;20.34;100.00
10706;BME280;5404;42.656;23.336;2023-07-31T00:43:39;94455.22;;;19.83;100.00
10706;BME280;5404;42.656;23.336;2023-07-31T00:46:05;94529.59;;;20.15;100.00
10706;BME280;5404;42.656;23.336;2023-07-31T00:48:31;94535.00;;;20.15;100.00
10706;BME280;5404;42.656;23.336;2023-07-31T00:50:57;94521.66;;;20.03;100.00
10706;BME280;5404;42.656;23.336;2023-07-31T00:53:24;94548.09;;;20.13;100.00
10706;BME280;5404;42.656;23.336;2023-07-31T00:55:50;94544.69;;;20.16;100.00
10706;BME280;5404;42.656;23.336;2023-07-31T00:58:15;94538.97;;;20.21;100.00
10706;BME280;5404;42.656;23.336;2023-07-31T01:00:41;94545.25;;;20.25;100.00
10706;BME280;5404;42.656;23.336;2023-07-31T01:03:06;94545.31;;;20.29;100.00
10706;BME280;5404;42.656;23.336;2023-07-31T01:08:56;94536.16;;;20.37;100.00
10706;BME280;5404;42.656;23.336;2023-07-31T01:11:32;94547.03;;;20.40;100.00
10706;BME280;5404;42.656;23.336;2023-07-31T01:13:58;94530.44;;;20.42;100.00
10706;BME280;5404;42.656;23.336;2023-07-31T01:16:27;94487.44;;;20.14;100.00
10706;BME280;5404;42.656;23.336;2023-07-31T01:18:53;94526.13;;;20.37;100.00
10706;BME280;5404;42.656;23.336;2023-07-31T01:23:56;94526.59;;;20.43;100.00
10706;BME280;5404;42.656;23.336;2023-07-31T01:26:30;94528.94;;;20.44;100.00
10706;BME280;5404;42.656;23.336;2023-07-31T01:29:12;94527.03;;;20.45;100.00
10706;BME280;5404;42.656;23.336;2023-07-31T01:31:45;94536.69;;;20.46;100.00
10706;BME280;5404;42.656;23.336;2023-07-31T01:34:13;94537.41;;;20.43;100.00
10706;BME280;5404;42.656;23.336;2023-07-31T01:36:41;94520.34;;;20.39;100.00
10706;BME280;5404;42.656;23.336;2023-07-31T01:39:06;94516.72;;;20.31;100.00
10706;BME280;5404;42.656;23.336;2023-07-31T01:41:32;94517.44;;;20.06;100.00
10706;BME280;5404;42.656;23.336;2023-07-31T01:43:57;94526.44;;;20.13;100.00
10706;BME280;5404;42.656;23.336;2023-07-31T01:46:23;94526.81;;;20.12;100.00
10706;BME280;5404;42.656;23.336;2023-07-31T01:48:48;94500.94;;;19.92;100.00
10706;BME280;5404;42.656;23.336;2023-07-31T01:51:13;94436.53;;;19.52;100.00
10706;BME280;5404;42.656;23.336;2023-07-31T01:53:39;94530.81;;;19.99;100.00
10706;BME280;5404;42.656;23.336;2023-07-31T01:56:04;94531.56;;;19.96;100.00
10706;BME280;5404;42.656;23.336;2023-07-31T01:58:30;94550.84;;;19.94;100.00
10706;BME280;5404;42.656;23.336;2023-07-31T02:00:55;94540.63;;;19.84;100.00
10706;BME280;5404;42.656;23.336;2023-07-31T02:03:21;94545.06;;;19.96;100.00
10706;BME280;5404;42.656;23.336;2023-07-31T02:05:49;94552.47;;;19.99;100.00
10706;BME280;5404;42.656;23.336;2023-07-31T02:08:15;94559.03;;;19.98;100.00
10706;BME280;5404;42.656;23.336;2023-07-31T02:10:41;94555.88;;;19.96;100.00
10706;BME280;5404;42.656;23.336;2023-07-31T02:13:07;94547.13;;;20.02;100.00
10706;BME280;5404;42.656;23.336;2023-07-31T02:15:32;94565.06;;;20.10;100.00
10706;BME280;5404;42.656;23.336;2023-07-31T02:17:58;94555.06;;;20.14;100.00
10706;BME280;5404;42.656;23.336;2023-07-31T02:20:23;94552.03;;;20.16;100.00
10706;BME280;5404;42.656;23.336;2023-07-31T02:22:49;94575.25;;;20.17;100.00
10706;BME280;5404;42.656;23.336;2023-07-31T02:25:14;94550.81;;;20.13;100.00
10706;BME280;5404;42.656;23.336;2023-07-31T02:27:40;94543.00;;;20.08;100.00
10706;BME280;5404;42.656;23.336;2023-07-31T02:30:06;94554.84;;;20.23;100.00
10706;BME280;5404;42.656;23.336;2023-07-31T02:32:31;94467.84;;;19.76;100.00
10706;BME280;5404;42.656;23.336;2023-07-31T02:34:57;94558.03;;;20.28;100.00
10706;BME280;5404;42.656;23.336;2023-07-31T02:37:23;94556.56;;;20.31;100.00
10706;BME280;5404;42.656;23.336;2023-07-31T02:39:48;94472.59;;;19.82;100.00
10706;BME280;5404;42.656;23.336;2023-07-31T02:42:14;94557.84;;;20.40;100.00
10706;BME280;5404;42.656;23.336;2023-07-31T02:44:40;94544.63;;;20.35;100.00
10706;BME280;5404;42.656;23.336;2023-07-31T02:47:05;94547.88;;;20.44;100.00
10706;BME280;5404;42.656;23.336;2023-07-31T02:49:31;94552.03;;;20.38;100.00
10706;BME280;5404;42.656;23.336;2023-07-31T02:51:56;94554.91;;;20.49;100.00
10706;BME280;5404;42.656;23.336;2023-07-31T02:54:21;94556.94;;;20.55;100.00
10706;BME280;5404;42.656;23.336;2023-07-31T02:56:47;94572.53;;;20.62;100.00
10706;BME280;5404;42.656;23.336;2023-07-31T02:59:13;94542.91;;;20.46;100.00
10706;BME280;5404;42.656;23.336;2023-07-31T03:01:39;94557.97;;;20.70;100.00
10706;BME280;5404;42.656;23.336;2023-07-31T03:04:04;94561.78;;;20.69;100.00
10706;BME280;5404;42.656;23.336;2023-07-31T03:06:30;94580.47;;;20.74;100.00
10706;BME280;5404;42.656;23.336;2023-07-31T03:08:55;94573.09;;;20.74;100.00
10706;BME280;5404;42.656;23.336;2023-07-31T03:11:21;94557.22;;;20.73;100.00
10706;BME280;5404;42.656;23.336;2023-07-31T03:13:46;94562.06;;;20.86;100.00
10706;BME280;5404;42.656;23.336;2023-07-31T03:16:12;94575.19;;;20.84;100.00
10706;BME280;5404;42.656;23.336;2023-07-31T03:18:37;94574.84;;;20.86;100.00
10706;BME280;5404;42.656;23.336;2023-07-31T03:21:02;94501.19;;;20.51;100.00
10706;BME280;5404;42.656;23.336;2023-07-31T03:23:29;94570.31;;;20.94;100.00
10706;BME280;5404;42.656;23.336;2023-07-31T03:26:01;94577.00;;;21.00;100.00
10706;BME280;5404;42.656;23.336;2023-07-31T03:28:29;94574.66;;;20.98;100.00
10706;BME280;5404;42.656;23.336;2023-07-31T03:30:55;94566.84;;;20.97;100.00
10706;BME280;5404;42.656;23.336;2023-07-31T03:33:20;94559.00;;;20.88;100.00
10706;BME280;5404;42.656;23.336;2023-07-31T03:35:46;94580.75;;;20.95;100.00
10706;BME280;5404;42.656;23.336;2023-07-31T03:38:11;94584.69;;;20.98;100.00
10706;BME280;5404;42.656;23.336;2023-07-31T03:40:38;94577.38;;;20.98;100.00
10706;BME280;5404;42.656;23.336;2023-07-31T03:43:03;94566.47;;;20.95;100.00
10706;BME280;5404;42.656;23.336;2023-07-31T03:45:29;94590.78;;;20.91;100.00
10706;BME280;5404;42.656;23.336;2023-07-31T03:47:54;94570.09;;;20.79;100.00
10706;BME280;5404;42.656;23.336;2023-07-31T03:50:20;94589.25;;;20.94;100.00
10706;BME280;5404;42.656;23.336;2023-07-31T03:52:46;94567.38;;;20.79;100.00
10706;BME280;5404;42.656;23.336;2023-07-31T03:55:11;94586.03;;;20.84;100.00
10706;BME280;5404;42.656;23.336;2023-07-31T03:57:37;94584.53;;;20.87;100.00
10706;BME280;5404;42.656;23.336;2023-07-31T04:00:02;94586.56;;;20.94;100.00
10706;BME280;5404;42.656;23.336;2023-07-31T04:02:28;94593.53;;;20.95;100.00
10706;BME280;5404;42.656;23.336;2023-07-31T04:04:54;94592.28;;;20.88;100.00
10706;BME280;5404;42.656;23.336;2023-07-31T04:07:19;94495.50;;;20.33;100.00
10706;BME280;5404;42.656;23.336;2023-07-31T04:09:45;94595.03;;;20.92;100.00
10706;BME280;5404;42.656;23.336;2023-07-31T04:12:10;94595.88;;;20.96;100.00
10706;BME280;5404;42.656;23.336;2023-07-31T04:14:36;94586.91;;;20.92;100.00
10706;BME280;5404;42.656;23.336;2023-07-31T04:17:02;94615.00;;;21.03;100.00
10706;BME280;5404;42.656;23.336;2023-07-31T04:19:27;94604.59;;;21.09;100.00
10706;BME280;5404;42.656;23.336;2023-07-31T04:21:53;94611.97;;;21.08;100.00
10706;BME280;5404;42.656;23.336;2023-07-31T04:24:18;94595.28;;;21.06;100.00
10706;BME280;5404;42.656;23.336;2023-07-31T04:26:52;94511.44;;;20.64;100.00
10706;BME280;5404;42.656;23.336;2023-07-31T04:29:18;94572.63;;;20.95;100.00
10706;BME280;5404;42.656;23.336;2023-07-31T04:31:45;94534.72;;;20.69;100.00
10706;BME280;5404;42.656;23.336;2023-07-31T04:34:11;94581.56;;;20.96;100.00
10706;BME280;5404;42.656;23.336;2023-07-31T04:36:39;94536.41;;;20.77;100.00
10706;BME280;5404;42.656;23.336;2023-07-31T04:39:05;94608.25;;;21.20;100.00
10706;BME280;5404;42.656;23.336;2023-07-31T04:41:31;94515.53;;;20.77;100.00
10706;BME280;5404;42.656;23.336;2023-07-31T04:43:56;94571.31;;;21.08;100.00
10706;BME280;5404;42.656;23.336;2023-07-31T04:46:21;94581.16;;;21.20;100.00
10706;BME280;5404;42.656;23.336;2023-07-31T04:48:47;94596.78;;;21.30;100.00
10706;BME280;5404;42.656;23.336;2023-07-31T04:51:12;94570.31;;;21.20;100.00
10706;BME280;5404;42.656;23.336;2023-07-31T04:53:38;94587.53;;;21.31;100.00
10706;BME280;5404;42.656;23.336;2023-07-31T04:56:03;94584.53;;;21.39;100.00
10706;BME280;5404;42.656;23.336;2023-07-31T04:58:29;94558.09;;;21.33;100.00
10706;BME280;5404;42.656;23.336;2023-07-31T05:00:54;94573.94;;;21.60;100.00
10706;BME280;5404;42.656;23.336;2023-07-31T05:03:19;94556.53;;;21.61;100.00
10706;BME280;5404;42.656;23.336;2023-07-31T05:05:45;94569.25;;;21.87;100.00
10706;BME280;5404;42.656;23.336;2023-07-31T05:08:10;94532.50;;;21.60;100.00
10706;BME280;5404;42.656;23.336;2023-07-31T05:10:36;94570.41;;;21.86;100.00
10706;BME280;5404;42.656;23.336;2023-07-31T05:13:01;94567.13;;;22.03;100.00
10706;BME280;5404;42.656;23.336;2023-07-31T05:15:28;94483.41;;;21.68;100.00
10706;BME280;5404;42.656;23.336;2023-07-31T05:17:53;94556.28;;;22.47;100.00
10706;BME280;5404;42.656;23.336;2023-07-31T05:20:18;94551.72;;;22.54;100.00
10706;BME280;5404;42.656;23.336;2023-07-31T05:22:44;94554.97;;;22.74;100.00
10706;BME280;5404;42.656;23.336;2023-07-31T05:25:09;94548.84;;;22.87;100.00
10706;BME280;5404;42.656;23.336;2023-07-31T05:27:35;94522.47;;;22.88;100.00
10706;BME280;5404;42.656;23.336;2023-07-31T05:30:00;94451.53;;;22.42;100.00
10706;BME280;5404;42.656;23.336;2023-07-31T05:32:26;94461.50;;;22.31;100.00
10706;BME280;5404;42.656;23.336;2023-07-31T05:34:52;94500.75;;;22.37;100.00
10706;BME280;5404;42.656;23.336;2023-07-31T05:37:18;94551.38;;;22.59;100.00
10706;BME280;5404;42.656;23.336;2023-07-31T05:39:43;94548.31;;;22.64;100.00
10706;BME280;5404;42.656;23.336;2023-07-31T05:42:09;94478.47;;;22.18;100.00
10706;BME280;5404;42.656;23.336;2023-07-31T05:44:34;94489.34;;;22.21;100.00
10706;BME280;5404;42.656;23.336;2023-07-31T05:46:59;94467.94;;;22.09;100.00
10706;BME280;5404;42.656;23.336;2023-07-31T05:49:25;94531.09;;;22.53;100.00
10706;BME280;5404;42.656;23.336;2023-07-31T05:51:50;94532.00;;;22.61;100.00
10706;BME280;5404;42.656;23.336;2023-07-31T05:54:16;94528.88;;;22.62;100.00
10706;BME280;5404;42.656;23.336;2023-07-31T05:56:41;94534.94;;;22.45;100.00
10706;BME280;5404;42.656;23.336;2023-07-31T05:59:09;94552.34;;;22.41;100.00
10706;BME280;5404;42.656;23.336;2023-07-31T06:01:34;94543.63;;;22.21;100.00
10706;BME280;5404;42.656;23.336;2023-07-31T06:04:00;94545.91;;;22.16;100.00
10706;BME280;5404;42.656;23.336;2023-07-31T06:06:27;94561.09;;;22.20;100.00
10706;BME280;5404;42.656;23.336;2023-07-31T06:08:52;94523.38;;;22.08;100.00
10706;BME280;5404;42.656;23.336;2023-07-31T06:11:19;94539.75;;;22.22;100.00
10706;BME280;5404;42.656;23.336;2023-07-31T06:13:45;94516.56;;;22.28;100.00
10706;BME280;5404;42.656;23.336;2023-07-31T06:16:12;94543.25;;;22.63;100.00
10706;BME280;5404;42.656;23.336;2023-07-31T06:18:37;94539.50;;;22.81;100.00
10706;BME280;5404;42.656;23.336;2023-07-31T06:21:02;94544.66;;;22.93;100.00
10706;BME280;5404;42.656;23.336;2023-07-31T06:23:28;94527.25;;;23.05;100.00
10706;BME280;5404;42.656;23.336;2023-07-31T06:25:53;94515.00;;;23.29;100.00
10706;BME280;5404;42.656;23.336;2023-07-31T06:28:19;94500.25;;;23.37;100.00
10706;BME280;5404;42.656;23.336;2023-07-31T06:30:44;94511.94;;;23.48;100.00
10706;BME280;5404;42.656;23.336;2023-07-31T06:33:09;94518.13;;;23.41;100.00
10706;BME280;5404;42.656;23.336;2023-07-31T06:35:35;94440.19;;;22.91;100.00
10706;BME280;5404;42.656;23.336;2023-07-31T06:38:00;94430.13;;;22.91;100.00
10706;BME280;5404;42.656;23.336;2023-07-31T06:40:27;94512.28;;;23.29;100.00
10706;BME280;5404;42.656;23.336;2023-07-31T06:42:53;94505.97;;;23.21;100.00
10706;BME280;5404;42.656;23.336;2023-07-31T06:45:18;94520.44;;;23.39;100.00
10706;BME280;5404;42.656;23.336;2023-07-31T06:47:43;94521.59;;;23.35;100.00
10706;BME280;5404;42.656;23.336;2023-07-31T06:50:09;94454.88;;;22.76;100.00
10706;BME280;5404;42.656;23.336;2023-07-31T06:52:34;94440.03;;;22.59;100.00
10706;BME280;5404;42.656;23.336;2023-07-31T06:55:15;94549.81;;;23.13;100.00
10706;BME280;5404;42.656;23.336;2023-07-31T06:57:42;94548.31;;;23.22;100.00
10706;BME280;5404;42.656;23.336;2023-07-31T07:00:08;94544.91;;;23.29;100.00
10706;BME280;5404;42.656;23.336;2023-07-31T07:02:34;94551.63;;;23.56;100.00
10706;BME280;5404;42.656;23.336;2023-07-31T07:04:59;94535.72;;;23.58;100.00
10706;BME280;5404;42.656;23.336;2023-07-31T07:07:24;94534.06;;;23.43;100.00
10706;BME280;5404;42.656;23.336;2023-07-31T07:09:50;94544.34;;;23.05;100.00
10706;BME280;5404;42.656;23.336;2023-07-31T07:12:15;94521.06;;;23.11;100.00
10706;BME280;5404;42.656;23.336;2023-07-31T07:14:41;94532.00;;;23.22;100.00
10706;BME280;5404;42.656;23.336;2023-07-31T07:17:06;94535.97;;;23.32;100.00
10706;BME280;5404;42.656;23.336;2023-07-31T07:19:32;94538.31;;;23.33;100.00
10706;BME280;5404;42.656;23.336;2023-07-31T07:21:57;94507.97;;;23.28;100.00
10706;BME280;5404;42.656;23.336;2023-07-31T07:24:25;94446.81;;;22.93;100.00
10706;BME280;5404;42.656;23.336;2023-07-31T07:26:50;94538.00;;;23.49;100.00
10706;BME280;5404;42.656;23.336;2023-07-31T07:29:16;94484.66;;;23.27;100.00
10706;BME280;5404;42.656;23.336;2023-07-31T07:31:41;94541.13;;;23.54;100.00
10706;BME280;5404;42.656;23.336;2023-07-31T07:34:07;94531.03;;;23.62;100.00
10706;BME280;5404;42.656;23.336;2023-07-31T07:36:32;94512.84;;;23.80;100.00
10706;BME280;5404;42.656;23.336;2023-07-31T07:38:58;94496.53;;;23.80;100.00
10706;BME280;5404;42.656;23.336;2023-07-31T07:41:23;94532.31;;;23.96;100.00
10706;BME280;5404;42.656;23.336;2023-07-31T07:43:49;94480.94;;;23.63;100.00
10706;BME280;5404;42.656;23.336;2023-07-31T07:46:14;94528.09;;;24.02;100.00
10706;BME280;5404;42.656;23.336;2023-07-31T07:48:40;94536.69;;;24.18;100.00
10706;BME280;5404;42.656;23.336;2023-07-31T07:51:05;94525.44;;;24.30;100.00
10706;BME280;5404;42.656;23.336;2023-07-31T07:53:30;94533.56;;;24.12;100.00
10706;BME280;5404;42.656;23.336;2023-07-31T07:55:56;94535.13;;;24.28;100.00
10706;BME280;5404;42.656;23.336;2023-07-31T07:58:21;94547.59;;;24.46;100.00
10706;BME280;5404;42.656;23.336;2023-07-31T08:00:55;94525.03;;;24.60;100.00
10706;BME280;5404;42.656;23.336;2023-07-31T08:03:21;94532.44;;;24.59;100.00
10706;BME280;5404;42.656;23.336;2023-07-31T08:05:46;94525.06;;;24.70;100.00
10706;BME280;5404;42.656;23.336;2023-07-31T08:08:15;94537.91;;;24.70;100.00
10706;BME280;5404;42.656;23.336;2023-07-31T08:10:46;94523.91;;;24.71;100.00
10706;BME280;5404;42.656;23.336;2023-07-31T08:13:12;94535.19;;;24.77;100.00
10706;BME280;5404;42.656;23.336;2023-07-31T08:15:37;94539.84;;;24.62;100.00
10706;BME280;5404;42.656;23.336;2023-07-31T08:18:03;94525.44;;;24.58;100.00
10706;BME280;5404;42.656;23.336;2023-07-31T08:20:28;94533.25;;;24.77;100.00
10706;BME280;5404;42.656;23.336;2023-07-31T08:22:53;94531.69;;;24.83;100.00
10706;BME280;5404;42.656;23.336;2023-07-31T08:25:19;94456.53;;;24.75;100.00
10706;BME280;5404;42.656;23.336;2023-07-31T08:27:44;94519.50;;;25.37;100.00
10706;BME280;5404;42.656;23.336;2023-07-31T08:30:11;94540.16;;;25.52;100.00
10706;BME280;5404;42.656;23.336;2023-07-31T08:32:37;94530.00;;;25.42;100.00
10706;BME280;5404;42.656;23.336;2023-07-31T08:35:03;94532.31;;;25.51;100.00
10706;BME280;5404;42.656;23.336;2023-07-31T08:37:28;94525.75;;;25.27;100.00
10706;BME280;5404;42.656;23.336;2023-07-31T08:39:54;94533.94;;;25.38;100.00
10706;BME280;5404;42.656;23.336;2023-07-31T08:42:20;94532.72;;;25.46;100.00
10706;BME280;5404;42.656;23.336;2023-07-31T08:44:46;94525.72;;;25.45;100.00
10706;BME280;5404;42.656;23.336;2023-07-31T08:47:12;94516.38;;;25.46;100.00
10706;BME280;5404;42.656;23.336;2023-07-31T08:49:38;94509.34;;;25.52;100.00
10706;BME280;5404;42.656;23.336;2023-07-31T08:52:04;94524.03;;;25.79;100.00
10706;BME280;5404;42.656;23.336;2023-07-31T08:54:29;94532.50;;;26.02;100.00
10706;BME280;5404;42.656;23.336;2023-07-31T08:56:56;94532.94;;;25.93;100.00
10706;BME280;5404;42.656;23.336;2023-07-31T08:59:23;94530.88;;;26.15;100.00
10706;BME280;5404;42.656;23.336;2023-07-31T09:01:50;94527.66;;;26.34;100.00
10706;BME280;5404;42.656;23.336;2023-07-31T09:04:19;94530.44;;;26.27;100.00
10706;BME280;5404;42.656;23.336;2023-07-31T09:06:46;94474.56;;;25.70;100.00
10706;BME280;5404;42.656;23.336;2023-07-31T09:09:13;94524.53;;;25.53;100.00
10706;BME280;5404;42.656;23.336;2023-07-31T09:11:39;94514.06;;;25.37;100.00
10706;BME280;5404;42.656;23.336;2023-07-31T09:14:06;94518.75;;;25.40;100.00
10706;BME280;5404;42.656;23.336;2023-07-31T09:16:34;94515.22;;;25.47;100.00
10706;BME280;5404;42.656;23.336;2023-07-31T09:18:59;94523.25;;;25.78;100.00
10706;BME280;5404;42.656;23.336;2023-07-31T09:21:27;94458.00;;;25.18;100.00
10706;BME280;5404;42.656;23.336;2023-07-31T09:23:53;94494.94;;;25.30;100.00
10706;BME280;5404;42.656;23.336;2023-07-31T09:26:31;94506.56;;;25.66;100.00
10706;BME280;5404;42.656;23.336;2023-07-31T09:28:59;94442.38;;;26.09;100.00
10706;BME280;5404;42.656;23.336;2023-07-31T09:31:41;94499.25;;;27.84;100.00
10706;BME280;5404;42.656;23.336;2023-07-31T09:34:07;94470.19;;;27.93;100.00
10706;BME280;5404;42.656;23.336;2023-07-31T09:36:40;94442.13;;;27.55;100.00
10706;BME280;5404;42.656;23.336;2023-07-31T09:39:09;94502.91;;;28.04;100.00
10706;BME280;5404;42.656;23.336;2023-07-31T09:41:42;94496.53;;;28.67;100.00
10706;BME280;5404;42.656;23.336;2023-07-31T09:44:10;94490.44;;;29.84;100.00
10706;BME280;5404;42.656;23.336;2023-07-31T09:46:36;94503.78;;;30.73;100.00
10706;BME280;5404;42.656;23.336;2023-07-31T09:49:08;94496.84;;;31.29;98.83
10706;BME280;5404;42.656;23.336;2023-07-31T09:51:38;94476.97;;;31.22;97.99
10706;BME280;5404;42.656;23.336;2023-07-31T09:54:13;94483.38;;;32.30;93.49
10706;BME280;5404;42.656;23.336;2023-07-31T09:56:43;94486.69;;;32.37;86.06
10706;BME280;5404;42.656;23.336;2023-07-31T09:59:15;94493.06;;;31.39;93.71
10706;BME280;5404;42.656;23.336;2023-07-31T10:01:41;94419.59;;;30.11;98.72
10706;BME280;5404;42.656;23.336;2023-07-31T10:04:08;94458.44;;;29.15;100.00
10706;BME280;5404;42.656;23.336;2023-07-31T10:06:35;94479.81;;;28.81;100.00
10706;BME280;5404;42.656;23.336;2023-07-31T10:09:03;94482.56;;;29.04;100.00
10706;BME280;5404;42.656;23.336;2023-07-31T10:11:30;94497.81;;;29.28;100.00
10706;BME280;5404;42.656;23.336;2023-07-31T10:13:56;94485.28;;;29.27;100.00
10706;BME280;5404;42.656;23.336;2023-07-31T10:16:22;94489.22;;;29.26;100.00
10706;BME280;5404;42.656;23.336;2023-07-31T10:18:49;94485.88;;;29.15;100.00
10706;BME280;5404;42.656;23.336;2023-07-31T10:21:15;94477.41;;;29.29;100.00
10706;BME280;5404;42.656;23.336;2023-07-31T10:23:42;94475.16;;;30.03;98.95
10706;BME280;5404;42.656;23.336;2023-07-31T10:26:08;94486.53;;;30.89;94.12
10706;BME280;5404;42.656;23.336;2023-07-31T10:28:36;94474.88;;;30.49;94.34
10706;BME280;5404;42.656;23.336;2023-07-31T10:31:03;94495.16;;;30.39;94.70
10706;BME280;5404;42.656;23.336;2023-07-31T10:33:29;94475.47;;;30.72;94.86
10706;BME280;5404;42.656;23.336;2023-07-31T10:36:33;94451.03;;;31.51;89.80
10706;BME280;5404;42.656;23.336;2023-07-31T10:38:59;94442.56;;;31.87;88.51
10706;BME280;5404;42.656;23.336;2023-07-31T10:41:30;94452.78;;;31.86;88.05
10706;BME280;5404;42.656;23.336;2023-07-31T10:44:02;94485.75;;;31.49;87.50
10706;BME280;5404;42.656;23.336;2023-07-31T10:46:28;94465.88;;;31.25;87.27
10706;BME280;5404;42.656;23.336;2023-07-31T10:48:58;94450.22;;;31.22;87.21
10706;BME280;5404;42.656;23.336;2023-07-31T10:51:33;94377.75;;;30.84;88.06
10706;BME280;5404;42.656;23.336;2023-07-31T10:54:13;94430.88;;;31.26;85.04
10706;BME280;5404;42.656;23.336;2023-07-31T10:56:40;94449.00;;;31.68;84.03
10706;BME280;5404;42.656;23.336;2023-07-31T10:59:09;94453.78;;;31.51;82.64
10706;BME280;5404;42.656;23.336;2023-07-31T11:01:54;94460.34;;;29.97;91.66
10706;BME280;5404;42.656;23.336;2023-07-31T11:04:24;94419.59;;;28.97;95.11
10706;BME280;5404;42.656;23.336;2023-07-31T11:07:00;94461.34;;;28.85;98.22
10706;BME280;5404;42.656;23.336;2023-07-31T11:09:30;94441.34;;;29.08;95.29
10706;BME280;5404;42.656;23.336;2023-07-31T11:11:56;94447.00;;;29.59;95.28
10706;BME280;5404;42.656;23.336;2023-07-31T11:14:22;94431.66;;;29.82;91.63
10706;BME280;5404;42.656;23.336;2023-07-31T11:16:51;94443.97;;;30.09;89.03
10706;BME280;5404;42.656;23.336;2023-07-31T11:19:23;94383.66;;;29.86;87.37
10706;BME280;5404;42.656;23.336;2023-07-31T11:21:49;94446.94;;;29.63;89.22
10706;BME280;5404;42.656;23.336;2023-07-31T11:24:14;94445.69;;;29.48;89.23
10706;BME280;5404;42.656;23.336;2023-07-31T11:26:51;94454.53;;;30.11;84.62
10706;BME280;5404;42.656;23.336;2023-07-31T11:29:17;94372.56;;;30.25;81.80
10706;BME280;5404;42.656;23.336;2023-07-31T11:31:45;94445.00;;;31.12;80.70
10706;BME280;5404;42.656;23.336;2023-07-31T11:34:11;94391.91;;;30.99;76.01
10706;BME280;5404;42.656;23.336;2023-07-31T11:36:37;94436.47;;;30.94;78.41
10706;BME280;5404;42.656;23.336;2023-07-31T11:39:09;94432.69;;;30.88;78.75
10706;BME280;5404;42.656;23.336;2023-07-31T11:41:35;94416.97;;;30.40;81.94
10706;BME280;5404;42.656;23.336;2023-07-31T11:44:00;94444.50;;;30.04;85.73
10706;BME280;5404;42.656;23.336;2023-07-31T11:46:26;94445.00;;;29.99;89.25
10706;BME280;5404;42.656;23.336;2023-07-31T11:48:52;94426.03;;;29.69;92.85
10706;BME280;5404;42.656;23.336;2023-07-31T11:51:20;94428.72;;;29.53;94.30
10706;BME280;5404;42.656;23.336;2023-07-31T11:53:56;94434.25;;;29.30;94.95
10706;BME280;5404;42.656;23.336;2023-07-31T11:56:23;94405.41;;;29.41;95.63
10706;BME280;5404;42.656;23.336;2023-07-31T11:58:57;94434.84;;;29.96;91.56
10706;BME280;5404;42.656;23.336;2023-07-31T12:01:23;94444.94;;;30.19;88.73
10706;BME280;5404;42.656;23.336;2023-07-31T12:03:50;94434.44;;;29.98;85.89
10706;BME280;5404;42.656;23.336;2023-07-31T12:06:16;94431.16;;;29.67;89.46
10706;BME280;5404;42.656;23.336;2023-07-31T12:08:41;94411.13;;;29.86;88.91
10706;BME280;5404;42.656;23.336;2023-07-31T12:11:09;94422.03;;;29.90;89.91
10706;BME280;5404;42.656;23.336;2023-07-31T12:13:40;94416.66;;;30.02;90.16
10706;BME280;5404;42.656;23.336;2023-07-31T12:16:05;94422.94;;;30.19;88.84
10706;BME280;5404;42.656;23.336;2023-07-31T12:18:37;94409.38;;;30.60;87.11
10706;BME280;5404;42.656;23.336;2023-07-31T12:21:07;94407.16;;;30.71;85.62
10706;BME280;5404;42.656;23.336;2023-07-31T12:23:35;94408.25;;;30.90;83.67
10706;BME280;5404;42.656;23.336;2023-07-31T12:28:30;94388.09;;;31.09;88.21
10706;BME280;5404;42.656;23.336;2023-07-31T12:31:00;94406.13;;;30.81;88.86
10706;BME280;5404;42.656;23.336;2023-07-31T12:33:34;94400.22;;;30.34;91.52
10706;BME280;5404;42.656;23.336;2023-07-31T12:36:02;94388.06;;;29.64;92.13
10706;BME280;5404;42.656;23.336;2023-07-31T12:38:28;94403.69;;;29.67;94.48
10706;BME280;5404;42.656;23.336;2023-07-31T12:40:53;94410.38;;;29.66;91.01
10706;BME280;5404;42.656;23.336;2023-07-31T12:43:19;94401.03;;;29.44;90.25
10706;BME280;5404;42.656;23.336;2023-07-31T12:45:44;94409.84;;;29.35;92.38
10706;BME280;5404;42.656;23.336;2023-07-31T12:48:10;94329.41;;;28.99;91.54
10706;BME280;5404;42.656;23.336;2023-07-31T12:50:36;94348.63;;;28.99;90.50
10706;BME280;5404;42.656;23.336;2023-07-31T12:53:02;94391.31;;;29.00;91.79
10706;BME280;5404;42.656;23.336;2023-07-31T12:55:28;94380.88;;;28.92;92.13
10706;BME280;5404;42.656;23.336;2023-07-31T12:57:55;94369.34;;;28.81;94.07